Time;durP1;ratioP1;P1;durP2;ratioP2;P2;SDS_P1;SDS_P2;PMS_P1;PMS_P2;Temp;Humidity;BMP_temperature;BMP_pressure;BME280_temperature;BME280_humidity;BME280_pressure;Samples;Min_cycle;Max_cycle;Signal;HPM_P1;HPM_P2
2022/10/06 00:00:34;;;;;;;3.03;1.65;;;;;;;16.18;64.86;96496.06;4997543;28;20207;-80
2022/10/06 00:03:00;;;;;;;4.03;1.73;;;;;;;16.19;64.52;96502.06;4996898;28;20203;-80
2022/10/06 00:05:27;;;;;;;2.60;1.60;;;;;;;16.17;64.82;96499.66;4997806;28;20191;-80
2022/10/06 00:07:54;;;;;;;1.65;1.55;;;;;;;16.19;64.83;96507.25;4997349;28;20234;-80
2022/10/06 00:10:21;;;;;;;5.43;1.80;;;;;;;16.18;64.79;96503.06;4997446;28;20199;-80
2022/10/06 00:12:50;;;;;;;2.92;1.58;;;;;;;16.16;64.89;96510.25;4997054;28;20199;-80
2022/10/06 00:15:20;;;;;;;2.97;1.52;;;;;;;16.15;64.70;96504.25;4996973;28;20231;-80
2022/10/06 00:17:48;;;;;;;1.60;1.50;;;;;;;16.14;64.94;96505.25;4997457;28;20906;-80
2022/10/06 00:20:16;;;;;;;4.22;1.80;;;;;;;16.15;64.96;96508.66;4997108;28;20238;-80
2022/10/06 00:22:44;;;;;;;1.65;1.40;;;;;;;16.17;64.73;96512.66;4997439;28;20223;-80
2022/10/06 00:25:12;;;;;;;1.67;1.58;;;;;;;16.15;64.46;96512.06;4997586;28;20584;-80
2022/10/06 00:27:41;;;;;;;1.70;1.60;;;;;;;16.13;64.59;96508.84;4996237;28;20219;-80
2022/10/06 00:30:10;;;;;;;1.60;1.50;;;;;;;16.11;64.52;96504.81;4996454;28;20207;-80
2022/10/06 00:32:38;;;;;;;3.28;1.52;;;;;;;16.12;64.53;96514.22;4997057;28;20570;-79
2022/10/06 00:35:08;;;;;;;3.78;1.70;;;;;;;16.11;64.88;96521.22;4991299;28;20200;-80
2022/10/06 00:37:36;;;;;;;4.03;1.60;;;;;;;16.01;65.34;96510.31;4996821;28;20223;-80
2022/10/06 00:40:05;;;;;;;1.70;1.60;;;;;;;15.90;65.73;96513.44;4997263;28;20188;-80
2022/10/06 00:42:32;;;;;;;2.08;1.40;;;;;;;15.77;65.75;96513.31;4996428;28;20200;-80
2022/10/06 00:45:03;;;;;;;1.73;1.63;;;;;;;15.72;65.90;96513.88;4997261;28;20242;-80
2022/10/06 00:47:32;;;;;;;1.70;1.60;;;;;;;15.64;65.94;96508.00;4997022;28;20605;-80
2022/10/06 00:50:01;;;;;;;2.10;1.70;;;;;;;15.60;66.07;96517.94;4996331;28;20192;-80
2022/10/06 00:52:31;;;;;;;2.22;2.03;;;;;;;15.58;65.76;96513.94;4997290;28;20200;-80
2022/10/06 00:54:59;;;;;;;2.38;1.70;;;;;;;15.53;65.41;96520.44;4996333;28;20199;-80
2022/10/06 00:57:26;;;;;;;2.03;1.80;;;;;;;15.54;65.78;96523.84;4997453;28;20220;-80
2022/10/06 00:59:53;;;;;;;1.80;1.70;;;;;;;15.59;65.41;96524.13;4996846;28;20222;-80
2022/10/06 01:02:22;;;;;;;1.83;1.48;;;;;;;15.59;65.78;96521.50;4997437;28;20203;-80
2022/10/06 01:04:54;;;;;;;2.80;1.70;;;;;;;15.57;65.93;96517.53;4996516;28;20953;-80
2022/10/06 01:07:22;;;;;;;1.50;1.30;;;;;;;15.56;65.89;96518.50;4997574;28;20233;-80
2022/10/06 01:09:50;;;;;;;3.03;1.50;;;;;;;15.54;65.82;96516.88;4997824;28;20195;-80
2022/10/06 01:12:17;;;;;;;4.68;2.10;;;;;;;15.46;65.82;96522.16;4995983;28;20208;-80
2022/10/06 01:14:43;;;;;;;2.70;1.58;;;;;;;15.42;65.80;96518.31;4996342;28;20204;-80
2022/10/06 01:17:18;;;;;;;3.00;1.60;;;;;;;15.40;66.27;96511.69;4996194;28;20227;-80
2022/10/06 01:19:50;;;;;;;1.70;1.60;;;;;;;15.35;66.65;96519.25;4993726;28;20219;-80
2022/10/06 01:22:26;;;;;;;3.00;1.48;;;;;;;15.29;66.78;96522.56;4993568;28;20215;-80
2022/10/06 01:24:52;;;;;;;2.35;1.50;;;;;;;15.28;66.74;96524.38;4995185;28;20207;-80
2022/10/06 01:27:20;;;;;;;1.60;1.50;;;;;;;15.25;67.43;96524.72;4995100;28;20224;-80
2022/10/06 01:29:51;;;;;;;1.60;1.50;;;;;;;15.20;67.47;96527.06;4996008;28;20188;-80
2022/10/06 01:32:17;;;;;;;1.83;1.70;;;;;;;15.13;67.57;96526.19;4995767;28;20204;-80
2022/10/06 01:34:44;;;;;;;1.70;1.55;;;;;;;15.10;67.52;96532.53;4995051;28;20192;-80
2022/10/06 01:37:10;;;;;;;3.03;1.73;;;;;;;15.10;67.43;96529.13;4995930;28;21091;-80
2022/10/06 01:39:38;;;;;;;5.00;1.90;;;;;;;15.06;67.66;96530.47;4995355;28;20717;-80
2022/10/06 01:42:05;;;;;;;2.58;1.98;;;;;;;15.07;67.46;96530.31;4995783;28;20576;-80
2022/10/06 01:44:32;;;;;;;1.80;1.60;;;;;;;15.00;67.74;96526.03;4994521;28;20195;-80
2022/10/06 01:46:58;;;;;;;2.75;1.60;;;;;;;15.02;67.65;96543.00;4995103;28;20226;-80
2022/10/06 01:49:24;;;;;;;2.65;1.77;;;;;;;15.01;67.69;96530.25;4995504;28;20198;-80
2022/10/06 01:51:51;;;;;;;2.33;1.70;;;;;;;15.02;67.37;96539.59;4994536;28;21433;-80
2022/10/06 01:54:17;;;;;;;2.20;1.90;;;;;;;15.05;67.35;96536.66;4995553;28;20200;-80
2022/10/06 01:56:45;;;;;;;1.48;1.38;;;;;;;15.02;67.29;96540.41;4994510;28;20215;-80
2022/10/06 01:59:12;;;;;;;2.83;1.77;;;;;;;14.94;67.67;96535.34;4995607;28;20215;-80
2022/10/06 02:01:38;;;;;;;1.65;1.55;;;;;;;14.92;67.81;96539.09;4995404;28;20199;-80
2022/10/06 02:04:04;;;;;;;2.45;1.80;;;;;;;14.90;68.29;96541.06;4995908;28;20730;-80
2022/10/06 02:06:31;;;;;;;1.90;1.63;;;;;;;14.79;68.31;96543.13;4995676;28;20639;-80
2022/10/06 02:08:59;;;;;;;1.58;1.48;;;;;;;14.82;68.08;96550.50;4996021;28;20199;-80
2022/10/06 02:11:26;;;;;;;2.20;1.42;;;;;;;14.89;67.57;96547.22;4994888;28;20667;-80
2022/10/06 02:13:54;;;;;;;1.70;1.50;;;;;;;14.98;67.10;96551.34;4993987;28;20218;-80
2022/10/06 02:16:20;;;;;;;1.65;1.55;;;;;;;15.00;66.93;96550.19;4995233;28;20199;-80
2022/10/06 02:18:47;;;;;;;1.88;1.67;;;;;;;15.03;66.78;96549.78;4994508;28;20215;-80
2022/10/06 02:21:15;;;;;;;1.63;1.40;;;;;;;15.06;66.70;96553.81;4994800;28;20212;-80
2022/10/06 02:23:42;;;;;;;2.92;1.52;;;;;;;15.09;66.12;96549.09;4994269;28;20773;-80
2022/10/06 02:26:09;;;;;;;4.00;1.55;;;;;;;15.05;66.44;96555.59;4994525;28;20563;-80
2022/10/06 02:28:35;;;;;;;2.75;1.58;;;;;;;14.98;66.91;96549.56;4994421;28;20207;-80
2022/10/06 02:31:06;;;;;;;1.58;1.48;;;;;;;15.06;66.24;96559.81;4994445;28;20694;-80
2022/10/06 02:33:33;;;;;;;1.88;1.45;;;;;;;15.06;66.26;96559.81;4995409;28;20199;-80
2022/10/06 02:35:59;;;;;;;2.05;1.38;;;;;;;15.05;66.49;96558.19;4994053;28;20200;-80
2022/10/06 02:38:26;;;;;;;1.80;1.60;;;;;;;15.07;66.77;96564.03;4995814;28;20227;-80
2022/10/06 02:40:53;;;;;;;1.65;1.55;;;;;;;14.99;66.70;96563.31;4994537;28;20203;-80
2022/10/06 02:43:20;;;;;;;2.42;1.70;;;;;;;15.00;66.96;96576.13;4994780;28;20250;-80
2022/10/06 02:45:52;;;;;;;2.13;1.70;;;;;;;14.96;67.18;96574.06;4995354;28;20199;-80
2022/10/06 02:48:21;;;;;;;3.28;1.88;;;;;;;14.92;67.21;96573.59;4995381;28;20219;-81
2022/10/06 02:50:54;;;;;;;3.40;1.80;;;;;;;14.94;67.18;96578.63;4994646;28;20195;-80
2022/10/06 02:53:20;;;;;;;2.35;2.15;;;;;;;14.94;66.92;96582.00;4989263;28;20584;-80
2022/10/06 02:55:47;;;;;;;2.35;1.70;;;;;;;14.91;67.09;96586.75;4995278;28;20243;-80
2022/10/06 02:58:13;;;;;;;3.10;1.55;;;;;;;14.93;67.18;96592.56;4995806;28;20635;-80
2022/10/06 03:00:40;;;;;;;4.55;1.75;;;;;;;14.95;66.88;96588.00;4994929;28;20582;-79
2022/10/06 03:03:06;;;;;;;2.28;1.67;;;;;;;14.95;66.67;96590.59;4995825;28;20204;-80
2022/10/06 03:05:34;;;;;;;3.70;1.63;;;;;;;14.87;67.27;96588.88;4995624;28;20195;-80
2022/10/06 03:08:00;;;;;;;3.05;1.90;;;;;;;14.89;67.28;96586.13;4995182;28;20242;-80
2022/10/06 03:10:27;;;;;;;1.95;1.60;;;;;;;14.90;67.23;96598.91;4995224;28;20204;-80
2022/10/06 03:12:53;;;;;;;2.63;1.80;;;;;;;14.90;67.55;96592.91;4995266;28;20683;-80
2022/10/06 03:15:20;;;;;;;1.63;1.45;;;;;;;14.82;67.47;96589.41;4995240;28;20219;-80
2022/10/06 03:17:48;;;;;;;2.95;1.63;;;;;;;14.82;67.99;96594.59;4995353;28;20226;-80
2022/10/06 03:20:14;;;;;;;1.70;1.60;;;;;;;14.82;67.86;96602.38;4989211;28;20219;-80
2022/10/06 03:22:42;;;;;;;3.17;1.70;;;;;;;14.85;67.77;96598.63;4995473;28;20202;-80
2022/10/06 03:25:09;;;;;;;2.53;1.70;;;;;;;14.81;67.83;96608.56;4998996;28;20749;-80
2022/10/06 03:27:36;;;;;;;2.03;1.60;;;;;;;14.86;68.12;96611.41;4998055;28;20215;-80
2022/10/06 03:30:03;;;;;;;2.63;1.60;;;;;;;14.93;67.96;96610.72;4998446;28;20203;-80
2022/10/06 03:32:29;;;;;;;2.13;1.83;;;;;;;14.95;68.28;96608.75;4998966;28;20203;-80
2022/10/06 03:34:56;;;;;;;4.97;1.75;;;;;;;14.98;68.27;96616.19;4998139;28;20215;-80
2022/10/06 03:37:22;;;;;;;2.00;1.48;;;;;;;15.02;67.95;96620.81;4998031;28;20234;-80
2022/10/06 03:39:50;;;;;;;2.80;1.48;;;;;;;15.05;68.19;96623.06;4998299;28;20215;-80
2022/10/06 03:42:16;;;;;;;1.90;1.60;;;;;;;15.08;68.10;96621.91;4992156;28;20191;-80
2022/10/06 03:44:43;;;;;;;3.03;1.70;;;;;;;15.07;68.19;96625.47;4998213;28;20188;-80
2022/10/06 03:47:09;;;;;;;1.70;1.60;;;;;;;15.05;68.21;96627.44;4998787;28;20219;-80
2022/10/06 03:49:37;;;;;;;1.75;1.63;;;;;;;14.95;68.47;96629.50;4999066;28;20215;-80
2022/10/06 03:52:04;;;;;;;2.35;1.60;;;;;;;14.91;69.19;96625.66;4998214;28;20203;-80
2022/10/06 03:54:30;;;;;;;1.60;1.50;;;;;;;14.95;68.77;96621.72;4997891;28;20191;-80
2022/10/06 03:56:58;;;;;;;3.47;1.70;;;;;;;14.89;68.99;96631.00;4997392;28;20215;-80
2022/10/06 03:59:27;;;;;;;2.10;1.45;;;;;;;14.90;68.98;96635.22;4997907;28;20254;-80
2022/10/06 04:01:54;;;;;;;1.73;1.63;;;;;;;14.90;68.80;96635.22;4997791;28;20207;-79
2022/10/06 04:04:21;;;;;;;2.80;1.77;;;;;;;14.92;68.73;96625.47;4997696;28;20203;-80
2022/10/06 04:06:47;;;;;;;1.90;1.70;;;;;;;14.94;68.21;96636.47;4997898;28;20211;-80
2022/10/06 04:09:14;;;;;;;2.75;1.55;;;;;;;14.95;68.10;96642.47;4997483;28;20191;-80
2022/10/06 04:11:42;;;;;;;2.75;1.65;;;;;;;14.95;67.97;96640.69;4997439;28;20195;-79
2022/10/06 04:14:12;;;;;;;1.80;1.70;;;;;;;14.97;68.09;96641.31;4997490;28;20203;-81
2022/10/06 04:16:40;;;;;;;3.95;1.80;;;;;;;14.96;67.78;96639.69;4997647;28;20622;-80
2022/10/06 04:19:09;;;;;;;3.58;1.55;;;;;;;14.95;67.42;96647.66;4996757;28;20612;-80
2022/10/06 04:21:40;;;;;;;1.70;1.50;;;;;;;14.91;67.49;96651.56;4998163;28;20250;-81
2022/10/06 04:24:09;;;;;;;2.20;1.60;;;;;;;14.92;67.20;96648.81;4997364;28;20648;-81
2022/10/06 04:26:40;;;;;;;3.22;1.60;;;;;;;14.92;67.07;96650.59;4998462;28;20211;-80
2022/10/06 04:29:07;;;;;;;1.98;1.63;;;;;;;14.91;67.20;96646.38;4996891;28;20191;-80
2022/10/06 04:31:37;;;;;;;2.60;1.73;;;;;;;14.95;67.16;96660.63;4997158;28;20222;-80
2022/10/06 04:34:05;;;;;;;2.58;1.55;;;;;;;14.97;66.78;96662.06;4996774;28;20215;-81
2022/10/06 04:36:34;;;;;;;1.77;1.60;;;;;;;14.97;66.63;96661.25;4996140;28;20215;-80
2022/10/06 04:39:02;;;;;;;3.33;1.50;;;;;;;14.97;66.50;96658.66;4996943;28;20742;-80
2022/10/06 04:41:31;;;;;;;3.95;1.52;;;;;;;14.97;66.88;96667.25;4996305;28;20210;-80
2022/10/06 04:43:58;;;;;;;4.22;1.73;;;;;;;14.95;66.64;96666.63;4989765;28;20253;-80
2022/10/06 04:46:25;;;;;;;1.75;1.55;;;;;;;14.95;66.29;96674.41;5000244;28;20206;-81
2022/10/06 04:48:54;;;;;;;2.75;1.80;;;;;;;14.94;66.06;96674.56;4999748;28;20579;-80
2022/10/06 04:51:22;;;;;;;3.88;1.50;;;;;;;14.96;65.82;96673.41;5003059;28;20564;-80
2022/10/06 04:53:49;;;;;;;1.98;1.50;;;;;;;14.97;65.61;96667.25;5004683;28;20230;-80
2022/10/06 04:56:18;;;;;;;1.60;1.50;;;;;;;15.00;65.25;96666.91;5005309;28;20200;-80
2022/10/06 04:58:46;;;;;;;2.75;1.40;;;;;;;15.01;65.06;96675.47;5005398;28;20199;-80
2022/10/06 05:01:14;;;;;;;1.70;1.60;;;;;;;15.00;65.13;96676.47;5004589;28;20219;-80
2022/10/06 05:03:41;;;;;;;3.05;1.80;;;;;;;14.97;64.81;96675.03;5004864;28;20286;-80
2022/10/06 05:06:12;;;;;;;3.55;1.75;;;;;;;14.98;64.87;96679.22;5001200;28;20204;-80
2022/10/06 05:08:39;;;;;;;2.20;1.80;;;;;;;14.97;64.73;96685.41;5002055;28;20278;-80
2022/10/06 05:11:09;;;;;;;2.00;1.50;;;;;;;15.00;64.44;96686.84;5002494;28;20222;-81
2022/10/06 05:13:37;;;;;;;2.35;1.50;;;;;;;14.99;64.30;96687.81;5001261;28;20208;-80
2022/10/06 05:16:05;;;;;;;1.48;1.38;;;;;;;15.01;64.30;96693.63;4999825;28;20195;-81
2022/10/06 05:18:33;;;;;;;2.72;1.60;;;;;;;15.02;64.13;96687.44;4999735;28;20232;-81
2022/10/06 05:21:02;;;;;;;4.72;1.50;;;;;;;15.03;64.20;96689.06;5000007;28;20699;-81
2022/10/06 05:23:32;;;;;;;3.70;1.42;;;;;;;15.06;64.01;96686.91;5000348;28;20464;-82
2022/10/06 05:26:00;;;;;;;1.67;1.50;;;;;;;15.06;64.15;96697.28;4999996;28;20203;-80
2022/10/06 05:28:29;;;;;;;2.15;1.67;;;;;;;15.04;64.93;96695.84;4998181;28;20251;-82
2022/10/06 05:30:58;;;;;;;3.22;2.03;;;;;;;15.06;64.72;96704.28;4999216;28;20232;-80
2022/10/06 05:33:25;;;;;;;2.72;1.95;;;;;;;15.08;64.11;96708.31;5000061;28;20207;-80
2022/10/06 05:35:53;;;;;;;4.10;1.70;;;;;;;15.08;63.97;96715.28;4999770;28;20201;-80
2022/10/06 05:38:19;;;;;;;4.22;1.73;;;;;;;15.08;63.89;96723.06;4999563;28;20215;-79
2022/10/06 05:40:48;;;;;;;15.30;11.75;;;;;;;15.06;63.89;96717.25;4998798;28;20230;-81
2022/10/06 05:43:14;;;;;;;10.93;8.80;;;;;;;15.04;63.90;96717.41;4998146;28;20218;-80
2022/10/06 05:45:41;;;;;;;5.63;3.97;;;;;;;15.06;64.00;96715.44;4998596;28;20210;-80
2022/10/06 05:48:09;;;;;;;4.78;2.25;;;;;;;15.07;64.03;96722.25;4999422;28;20227;-81
2022/10/06 05:50:36;;;;;;;4.00;1.70;;;;;;;15.09;64.05;96716.88;4986209;28;20192;-80
2022/10/06 05:53:02;;;;;;;5.70;1.90;;;;;;;15.10;63.93;96729.69;4998160;28;20199;-80
2022/10/06 05:55:30;;;;;;;2.13;1.80;;;;;;;15.13;63.91;96731.13;4999713;28;20196;-80
2022/10/06 05:57:58;;;;;;;4.65;1.60;;;;;;;15.15;63.62;96735.16;4999290;28;20235;-80
2022/10/06 06:00:24;;;;;;;3.63;1.83;;;;;;;15.15;63.80;96744.72;4993421;28;20586;-80
2022/10/06 06:02:51;;;;;;;5.30;2.03;;;;;;;15.20;63.61;96750.22;4999231;28;20195;-81
2022/10/06 06:05:17;;;;;;;4.07;2.00;;;;;;;15.25;63.53;96749.66;4997567;28;20715;-80
2022/10/06 06:07:44;;;;;;;2.20;2.00;;;;;;;15.30;63.58;96757.72;4998826;28;20218;-80
2022/10/06 06:10:10;;;;;;;1.90;1.60;;;;;;;15.29;63.25;96761.28;4997685;28;20199;-80
2022/10/06 06:12:37;;;;;;;2.05;1.85;;;;;;;15.46;63.14;96758.38;4999908;28;20211;-81
2022/10/06 06:17:50;;;;;;;4.43;2.10;;;;;;;15.93;62.46;96772.03;4996268;28;20226;-82
2022/10/06 06:20:16;;;;;;;2.20;1.98;;;;;;;16.05;62.31;96775.75;4999126;28;20215;-80
2022/10/06 06:22:43;;;;;;;11.00;6.82;;;;;;;16.20;61.90;96777.34;4998340;28;20210;-80
2022/10/06 06:25:11;;;;;;;6.18;3.92;;;;;;;16.32;61.79;96780.28;5001104;28;20200;-80
2022/10/06 06:27:40;;;;;;;3.00;2.30;;;;;;;16.48;61.67;96787.06;4994259;28;20207;-81
2022/10/06 06:30:10;;;;;;;3.67;2.53;;;;;;;16.50;61.90;96787.69;4995014;28;20264;-81
2022/10/06 06:32:36;;;;;;;6.18;2.45;;;;;;;16.47;62.72;96795.84;4996354;28;20207;-81
2022/10/06 06:35:03;;;;;;;2.83;1.88;;;;;;;16.71;61.48;96792.94;4996138;28;20195;-81
2022/10/06 06:37:38;;;;;;;4.47;2.05;;;;;;;16.95;59.74;96796.16;4998256;28;20226;-80
2022/10/06 06:40:06;;;;;;;3.40;1.88;;;;;;;17.19;59.82;96795.75;4996236;28;20223;-80
2022/10/06 06:42:32;;;;;;;6.47;2.53;;;;;;;17.40;58.52;96802.75;4997106;28;20196;-80
2022/10/06 06:44:59;;;;;;;2.42;1.83;;;;;;;17.58;58.28;96806.47;4997375;28;20200;-81
2022/10/06 06:47:26;;;;;;;3.95;1.90;;;;;;;17.74;57.69;96802.81;4996374;28;20222;-80
2022/10/06 06:49:53;;;;;;;6.90;2.50;;;;;;;17.92;57.32;96803.09;4990117;28;20199;-80
2022/10/06 06:52:20;;;;;;;3.40;1.85;;;;;;;18.07;56.84;96813.44;4995091;28;20259;-80
2022/10/06 06:54:48;;;;;;;4.00;1.95;;;;;;;18.23;55.66;96820.13;4996020;28;20192;-81
2022/10/06 06:57:15;;;;;;;2.78;1.73;;;;;;;18.33;55.00;96825.75;4987236;28;20702;-80
2022/10/06 06:59:41;;;;;;;2.63;1.60;;;;;;;18.55;54.91;96829.88;4999033;28;20192;-79
2022/10/06 07:02:10;;;;;;;2.63;1.80;;;;;;;18.67;54.84;96826.72;4999161;28;20566;-80
2022/10/06 07:04:38;;;;;;;3.45;1.70;;;;;;;18.79;54.32;96828.56;4998523;28;20250;-80
2022/10/06 07:07:04;;;;;;;3.95;1.80;;;;;;;18.97;54.36;96823.59;4998505;28;20242;-80
2022/10/06 07:09:31;;;;;;;2.67;1.80;;;;;;;19.18;53.81;96830.44;4999434;28;20210;-80
2022/10/06 07:11:57;;;;;;;2.60;1.65;;;;;;;19.38;53.64;96827.84;4993347;28;20663;-80
2022/10/06 07:14:24;;;;;;;3.78;1.90;;;;;;;19.45;52.89;96833.84;4997820;28;20211;-80
2022/10/06 07:25:17;;;;;;;3.35;1.80;;;;;;;20.05;52.22;96852.09;4996968;28;20595;-80
2022/10/06 07:27:45;;;;;;;4.03;1.90;;;;;;;20.31;52.14;96844.19;4997280;28;20219;-81
2022/10/06 07:30:17;;;;;;;4.97;2.28;;;;;;;20.50;51.54;96856.44;4998077;28;20199;-81
2022/10/06 07:32:45;;;;;;;2.63;1.60;;;;;;;20.52;50.94;96857.03;4995700;28;20196;-81
2022/10/06 07:35:12;;;;;;;2.80;2.60;;;;;;;20.72;50.77;96856.94;4998530;28;20192;-81
2022/10/06 07:37:40;;;;;;;3.70;2.00;;;;;;;20.98;50.75;96862.03;4999156;28;20207;-81
2022/10/06 07:40:08;;;;;;;4.68;2.08;;;;;;;21.16;50.49;96850.06;4999389;28;20287;-81
2022/10/06 07:42:47;;;;;;;2.17;1.75;;;;;;;21.28;49.85;96864.09;4997835;28;20196;-79
2022/10/06 07:47:59;;;;;;;2.13;1.80;;;;;;;21.70;48.07;96857.31;4996896;28;20230;-80
2022/10/06 07:50:26;;;;;;;2.13;1.60;;;;;;;21.91;47.66;96856.94;4998217;28;20203;-80
2022/10/06 07:52:54;;;;;;;5.90;1.90;;;;;;;21.93;46.85;96854.91;4998703;28;20207;-80
2022/10/06 07:55:21;;;;;;;2.58;2.00;;;;;;;22.19;47.21;96866.97;4998355;28;20199;-81
2022/10/06 07:57:49;;;;;;;3.03;1.90;;;;;;;22.31;46.04;96865.22;4998882;28;20224;-82
2022/10/06 08:00:19;;;;;;;6.72;1.92;;;;;;;22.36;45.74;96870.59;4997896;28;20227;-81
2022/10/06 08:02:45;;;;;;;4.68;1.90;;;;;;;22.48;45.47;96872.50;5000632;28;20202;-81
2022/10/06 08:05:12;;;;;;;4.00;1.98;;;;;;;22.59;45.07;96883.06;4998933;28;20196;-81
2022/10/06 08:07:38;;;;;;;4.35;1.90;;;;;;;22.51;44.96;96890.44;4993493;28;20223;-81
2022/10/06 08:10:07;;;;;;;3.65;1.70;;;;;;;22.60;45.41;96879.41;4996631;28;20200;-81
2022/10/06 08:12:36;;;;;;;3.95;2.00;;;;;;;22.80;45.78;96884.47;4993506;28;20411;-81
2022/10/06 08:15:05;;;;;;;2.55;1.77;;;;;;;22.91;45.21;96896.03;4997286;28;20266;-81
2022/10/06 08:17:32;;;;;;;3.28;1.88;;;;;;;22.99;45.15;96882.59;4997314;28;20314;-80
2022/10/06 08:19:58;;;;;;;3.10;1.90;;;;;;;23.03;45.02;96891.66;4994841;28;20207;-81
2022/10/06 08:22:28;;;;;;;5.90;2.00;;;;;;;23.14;45.11;96887.44;4997119;28;20203;-81
2022/10/06 08:24:56;;;;;;;2.10;1.90;;;;;;;23.27;45.54;96887.28;4996396;28;20266;-81
2022/10/06 08:27:24;;;;;;;4.25;1.83;;;;;;;23.36;45.57;96891.97;4996009;28;20250;-81
2022/10/06 08:29:50;;;;;;;4.13;2.03;;;;;;;23.45;45.83;96889.03;4995576;28;20200;-80
2022/10/06 08:32:19;;;;;;;3.30;2.00;;;;;;;23.52;45.67;96893.16;4995380;28;20192;-81
2022/10/06 08:34:46;;;;;;;3.63;2.03;;;;;;;23.59;45.42;96891.25;4995783;28;20835;-80
2022/10/06 08:37:12;;;;;;;3.42;1.98;;;;;;;23.67;45.83;96896.16;4995521;28;20224;-81
2022/10/06 08:39:40;;;;;;;3.05;2.03;;;;;;;23.70;45.78;96903.59;4995426;28;20195;-81
2022/10/06 08:42:14;;;;;;;3.80;1.92;;;;;;;23.68;44.90;96905.66;4994030;28;20686;-81
2022/10/06 08:44:47;;;;;;;4.18;1.85;;;;;;;23.66;44.50;96899.84;4992543;28;20223;-80
2022/10/06 08:47:17;;;;;;;2.38;1.88;;;;;;;23.71;45.21;96899.16;4997745;28;20224;-81
2022/10/06 08:49:45;;;;;;;2.78;1.90;;;;;;;23.84;45.71;96892.88;4997067;28;20196;-81
2022/10/06 08:52:24;;;;;;;1.95;1.85;;;;;;;23.80;45.52;96897.00;4995256;28;20226;-81
2022/10/06 08:55:02;;;;;;;2.08;1.60;;;;;;;23.82;45.64;96898.38;4998203;28;20217;-81
2022/10/06 08:57:36;;;;;;;1.85;1.73;;;;;;;23.88;45.33;96905.34;5001926;28;20918;-81
2022/10/06 09:00:11;;;;;;;2.97;2.05;;;;;;;23.90;44.31;96899.84;4998764;28;20190;-80
2022/10/06 09:02:42;;;;;;;2.08;1.88;;;;;;;23.91;44.47;96904.09;4998219;28;20706;-81
2022/10/06 09:05:12;;;;;;;2.40;1.95;;;;;;;23.81;46.26;96893.34;4995316;28;20215;-81
2022/10/06 09:07:51;;;;;;;6.25;2.33;;;;;;;23.73;45.34;96903.16;4997637;28;20226;-81
2022/10/06 09:10:33;;;;;;;4.85;2.13;;;;;;;23.80;45.13;96910.16;4997655;28;20208;-81
2022/10/06 09:13:05;;;;;;;2.53;1.88;;;;;;;23.89;45.57;96903.50;4997924;28;20203;-80
2022/10/06 09:15:42;;;;;;;2.83;1.77;;;;;;;23.94;45.48;96909.69;4997652;28;20199;-81
2022/10/06 09:18:15;;;;;;;3.22;2.38;;;;;;;23.75;44.93;96910.81;4996923;28;21009;-81
2022/10/06 09:20:46;;;;;;;7.10;4.88;;;;;;;23.77;45.77;96908.78;4978622;28;20227;-81
2022/10/06 09:23:46;;;;;;;3.25;2.83;;;;;;;23.79;46.72;96906.72;4978548;28;20208;-81
2022/10/06 09:26:04;;;;;;;2.42;2.22;;;;;;;23.77;46.39;96904.31;4978089;28;20258;-81
2022/10/06 09:28:32;;;;;;;5.65;2.00;;;;;;;23.62;45.78;96903.94;4976800;28;20224;-81
2022/10/06 09:31:02;;;;;;;3.88;1.90;;;;;;;23.60;46.81;96916.53;4977684;28;20320;-81
2022/10/06 09:33:37;;;;;;;3.67;1.90;;;;;;;23.58;45.60;96909.88;4977672;28;20208;-81
2022/10/06 09:36:08;;;;;;;3.63;2.10;;;;;;;23.45;47.03;96917.94;4977471;28;20211;-81
2022/10/06 09:38:52;;;;;;;4.70;2.10;;;;;;;23.31;47.61;96915.50;4977783;28;20228;-81
2022/10/06 09:41:22;;;;;;;4.10;2.03;;;;;;;23.21;47.29;96911.81;4992241;28;20301;-81
2022/10/06 09:43:55;;;;;;;3.17;2.00;;;;;;;23.22;47.52;96914.22;4997050;28;20195;-81
2022/10/06 09:46:28;;;;;;;4.15;2.00;;;;;;;23.23;47.30;96915.03;4995276;28;20192;-80
2022/10/06 09:49:16;;;;;;;4.68;2.53;;;;;;;23.17;47.90;96916.72;4995097;28;20583;-81
2022/10/06 09:51:59;;;;;;;3.92;2.53;;;;;;;23.25;48.36;96915.59;4993054;28;20227;-81
2022/10/06 09:54:27;;;;;;;2.67;2.15;;;;;;;23.34;47.64;96917.69;4994304;28;20199;-81
2022/10/06 09:56:55;;;;;;;2.33;2.10;;;;;;;23.38;48.24;96918.03;4993955;28;20226;-81
2022/10/06 09:59:28;;;;;;;2.88;2.00;;;;;;;23.37;48.11;96906.72;4994888;28;20544;-81
2022/10/06 10:01:58;;;;;;;2.95;2.00;;;;;;;23.32;48.38;96911.03;4998020;28;20572;-80
2022/10/06 10:04:27;;;;;;;2.30;2.10;;;;;;;23.31;48.75;96914.69;4994532;28;20207;-79
2022/10/06 10:06:53;;;;;;;6.80;4.32;;;;;;;23.17;48.76;96910.66;4996533;28;20745;-81
2022/10/06 10:09:25;;;;;;;8.82;7.43;;;;;;;22.93;48.52;96912.38;4996796;28;20203;-80
2022/10/06 10:12:26;;;;;;;2.65;2.42;;;;;;;22.82;50.23;96911.31;4995931;28;20198;-80
2022/10/06 10:14:55;;;;;;;3.55;2.50;;;;;;;22.80;50.06;96905.47;4992545;28;20343;-81
2022/10/06 10:17:36;;;;;;;3.15;2.20;;;;;;;22.85;49.82;96899.56;4993792;28;20227;-80
2022/10/06 10:20:08;;;;;;;4.35;2.42;;;;;;;22.77;50.35;96905.06;4993355;28;20195;-82
2022/10/06 10:22:36;;;;;;;3.47;2.30;;;;;;;22.59;50.10;96900.63;4994003;28;20293;-81
2022/10/06 10:25:15;;;;;;;3.47;2.30;;;;;;;22.54;51.23;96903.91;4992931;28;20404;-81
2022/10/06 10:27:54;;;;;;;2.60;2.40;;;;;;;22.57;51.70;96910.56;4983568;28;20215;-81
2022/10/06 10:30:22;;;;;;;5.70;2.55;;;;;;;22.46;51.30;96898.19;4986748;28;20200;-82
2022/10/06 10:32:56;;;;;;;3.85;2.38;;;;;;;22.36;51.31;96898.66;4989304;28;20259;-81
2022/10/06 10:35:27;;;;;;;4.15;2.25;;;;;;;22.30;53.03;96908.25;4985055;28;20199;-81
2022/10/06 10:38:00;;;;;;;6.53;5.55;;;;;;;22.28;52.06;96910.28;4992742;28;20223;-81
2022/10/06 10:40:35;;;;;;;8.18;7.30;;;;;;;22.31;52.93;96907.22;4990957;28;20211;-81
2022/10/06 10:43:12;;;;;;;4.25;3.72;;;;;;;22.16;52.88;96898.06;4985160;28;20227;-81
2022/10/06 10:45:44;;;;;;;3.88;2.70;;;;;;;22.00;52.68;96907.31;4987079;28;20199;-81
2022/10/06 10:48:17;;;;;;;6.20;2.72;;;;;;;21.84;53.59;96906.00;4990582;28;20234;-81
2022/10/06 10:50:53;;;;;;;4.18;2.60;;;;;;;21.81;54.47;96895.94;4992480;28;20205;-81
2022/10/06 10:53:25;;;;;;;2.50;2.30;;;;;;;21.99;53.44;96901.22;4992568;28;20206;-81
2022/10/06 10:55:53;;;;;;;2.63;2.03;;;;;;;22.24;54.51;96903.84;4990489;28;20222;-81
2022/10/06 10:58:27;;;;;;;3.33;2.08;;;;;;;22.39;54.93;96912.16;4992443;28;20587;-80
2022/10/06 11:00:59;;;;;;;5.95;5.32;;;;;;;22.46;54.11;96913.94;4993109;28;20245;-81
2022/10/06 11:03:26;;;;;;;20.50;18.38;;;;;;;22.25;53.98;96910.69;4993612;28;20206;-80
2022/10/06 11:06:18;;;;;;;8.68;5.90;;;;;;;22.00;54.79;96909.94;4993006;28;20215;-81
2022/10/06 11:08:54;;;;;;;4.03;3.03;;;;;;;21.71;55.65;96914.00;4991219;28;20209;-81
2022/10/06 11:11:42;;;;;;;6.38;2.70;;;;;;;21.62;56.12;96910.81;4992448;28;20603;-81
2022/10/06 11:14:20;;;;;;;4.43;2.80;;;;;;;21.56;56.27;96909.03;4992691;28;20211;-81
2022/10/06 11:16:55;;;;;;;3.53;2.72;;;;;;;21.53;57.03;96903.44;4992152;28;20219;-81
2022/10/06 11:19:33;;;;;;;3.05;2.38;;;;;;;21.37;56.75;96910.78;4985695;28;20560;-81
2022/10/06 11:22:06;;;;;;;4.57;2.70;;;;;;;21.37;57.16;96912.59;4993093;28;20215;-80
2022/10/06 11:24:43;;;;;;;3.10;2.60;;;;;;;21.28;56.62;96911.25;4996627;28;20663;-80
2022/10/06 11:27:19;;;;;;;4.93;2.90;;;;;;;21.12;57.18;96909.13;4987515;28;20218;-81
2022/10/06 11:29:59;;;;;;;5.07;2.65;;;;;;;21.05;57.77;96906.53;4994901;28;20191;-81
2022/10/06 11:32:34;;;;;;;3.78;2.50;;;;;;;21.09;57.95;96905.09;4990092;28;20198;-81
2022/10/06 11:35:03;;;;;;;5.20;2.85;;;;;;;21.15;58.23;96900.84;4993860;28;20202;-80
2022/10/06 11:37:40;;;;;;;3.25;2.83;;;;;;;21.05;59.23;96896.03;4995132;28;20226;-81
2022/10/06 11:40:35;;;;;;;4.32;2.63;;;;;;;20.99;58.92;96895.06;4992542;28;20206;-80
2022/10/06 11:43:07;;;;;;;3.90;2.50;;;;;;;21.10;58.75;96896.22;4990518;28;20691;-81
2022/10/06 11:45:44;;;;;;;4.18;2.33;;;;;;;21.12;59.18;96898.63;4997399;28;20715;-81
2022/10/06 11:48:23;;;;;;;4.57;2.80;;;;;;;21.17;59.36;96896.16;4994515;28;20215;-79
2022/10/06 11:50:54;;;;;;;4.30;2.70;;;;;;;21.21;58.69;96892.94;4996616;28;20195;-80
2022/10/06 11:53:40;;;;;;;6.07;2.58;;;;;;;21.32;58.07;96888.88;4991013;28;20718;-79
2022/10/06 11:56:39;;;;;;;3.88;2.80;;;;;;;21.54;58.02;96887.50;4996922;28;20188;-82
2022/10/06 11:59:27;;;;;;;26.80;22.67;;;;;;;21.82;57.51;96879.19;4995613;28;20617;-81